Terminal Aerodrome Forecast
Issued by NWS

Home | Current Version | Previous Version | Text Only | Print | Product List | Glossary On
Versions: 1 2 3 4 5 6 7 8 9 10 11 12 13 14 15 16
000
FTUS42 KTBW 011218 AAA
TAFLAL
TAF AMD
KLAL 011218Z 0112/0212 06004KT P6SM SCT020
      TEMPO 0112/0114 BKN020
     FM011500 05005KT P6SM SCT030
     FM012000 06005KT P6SM VCTS SCT040CB BKN250
     FM020000 04004KT P6SM SCT040 SCT250=

USA.gov is the U.S. government's official web portal to all federal, state and local government web resources and services.